sensor_id;sensor_type;location;lat;lon;timestamp;P1;durP1;ratioP1;P2;durP2;ratioP2
17079;SDS011;8655;57.106;-2.088;2023-07-09T00:01:53;7.10;;;3.50;;
17079;SDS011;8655;57.106;-2.088;2023-07-09T00:04:19;7.78;;;4.25;;
17079;SDS011;8655;57.106;-2.088;2023-07-09T00:06:45;5.50;;;3.45;;
17079;SDS011;8655;57.106;-2.088;2023-07-09T00:09:12;6.32;;;3.83;;
17079;SDS011;8655;57.106;-2.088;2023-07-09T00:11:40;8.05;;;4.25;;
17079;SDS011;8655;57.106;-2.088;2023-07-09T00:14:07;5.10;;;3.55;;
17079;SDS011;8655;57.106;-2.088;2023-07-09T00:16:34;7.60;;;3.85;;
17079;SDS011;8655;57.106;-2.088;2023-07-09T00:19:02;5.63;;;3.55;;
17079;SDS011;8655;57.106;-2.088;2023-07-09T00:21:29;6.85;;;3.60;;
17079;SDS011;8655;57.106;-2.088;2023-07-09T00:23:59;5.70;;;3.55;;
17079;SDS011;8655;57.106;-2.088;2023-07-09T00:26:30;5.97;;;3.58;;
17079;SDS011;8655;57.106;-2.088;2023-07-09T00:28:57;8.82;;;3.92;;
17079;SDS011;8655;57.106;-2.088;2023-07-09T00:31:24;6.18;;;3.80;;
17079;SDS011;8655;57.106;-2.088;2023-07-09T00:33:50;6.75;;;3.90;;
17079;SDS011;8655;57.106;-2.088;2023-07-09T00:36:20;8.90;;;3.75;;
17079;SDS011;8655;57.106;-2.088;2023-07-09T00:38:53;5.80;;;3.35;;
17079;SDS011;8655;57.106;-2.088;2023-07-09T00:41:19;6.90;;;3.85;;
17079;SDS011;8655;57.106;-2.088;2023-07-09T00:43:48;6.18;;;3.45;;
17079;SDS011;8655;57.106;-2.088;2023-07-09T00:51:43;6.88;;;4.30;;
17079;SDS011;8655;57.106;-2.088;2023-07-09T00:54:32;5.47;;;3.25;;
17079;SDS011;8655;57.106;-2.088;2023-07-09T00:57:03;7.95;;;3.38;;
17079;SDS011;8655;57.106;-2.088;2023-07-09T00:59:34;7.28;;;3.67;;
17079;SDS011;8655;57.106;-2.088;2023-07-09T01:02:00;5.18;;;3.38;;
17079;SDS011;8655;57.106;-2.088;2023-07-09T01:04:26;5.38;;;3.55;;
17079;SDS011;8655;57.106;-2.088;2023-07-09T01:06:53;4.75;;;3.40;;
17079;SDS011;8655;57.106;-2.088;2023-07-09T01:09:21;7.45;;;3.97;;
17079;SDS011;8655;57.106;-2.088;2023-07-09T01:11:47;5.40;;;3.50;;
17079;SDS011;8655;57.106;-2.088;2023-07-09T01:14:14;5.60;;;3.50;;
17079;SDS011;8655;57.106;-2.088;2023-07-09T01:16:46;4.80;;;3.28;;
17079;SDS011;8655;57.106;-2.088;2023-07-09T01:19:22;7.00;;;3.50;;
17079;SDS011;8655;57.106;-2.088;2023-07-09T01:21:53;5.25;;;3.40;;
17079;SDS011;8655;57.106;-2.088;2023-07-09T01:27:14;5.50;;;3.30;;
17079;SDS011;8655;57.106;-2.088;2023-07-09T01:29:41;5.78;;;3.47;;
17079;SDS011;8655;57.106;-2.088;2023-07-09T01:32:12;4.82;;;3.30;;
17079;SDS011;8655;57.106;-2.088;2023-07-09T01:34:39;6.03;;;3.58;;
17079;SDS011;8655;57.106;-2.088;2023-07-09T01:37:06;4.82;;;3.25;;
17079;SDS011;8655;57.106;-2.088;2023-07-09T01:39:31;7.38;;;3.63;;
17079;SDS011;8655;57.106;-2.088;2023-07-09T01:41:57;7.35;;;3.40;;
17079;SDS011;8655;57.106;-2.088;2023-07-09T01:44:23;6.28;;;3.42;;
17079;SDS011;8655;57.106;-2.088;2023-07-09T01:46:48;5.68;;;3.25;;
17079;SDS011;8655;57.106;-2.088;2023-07-09T01:49:15;6.47;;;3.38;;
17079;SDS011;8655;57.106;-2.088;2023-07-09T01:51:41;6.35;;;3.70;;
17079;SDS011;8655;57.106;-2.088;2023-07-09T01:54:07;5.60;;;3.38;;
17079;SDS011;8655;57.106;-2.088;2023-07-09T01:56:33;4.13;;;3.08;;
17079;SDS011;8655;57.106;-2.088;2023-07-09T01:58:59;5.20;;;3.47;;
17079;SDS011;8655;57.106;-2.088;2023-07-09T02:01:29;4.57;;;3.00;;
17079;SDS011;8655;57.106;-2.088;2023-07-09T02:03:55;5.15;;;3.15;;
17079;SDS011;8655;57.106;-2.088;2023-07-09T02:06:20;4.68;;;3.40;;
17079;SDS011;8655;57.106;-2.088;2023-07-09T02:08:49;7.90;;;3.30;;
17079;SDS011;8655;57.106;-2.088;2023-07-09T02:11:15;6.22;;;3.67;;
17079;SDS011;8655;57.106;-2.088;2023-07-09T02:13:41;4.97;;;3.30;;
17079;SDS011;8655;57.106;-2.088;2023-07-09T02:16:07;4.55;;;2.95;;
17079;SDS011;8655;57.106;-2.088;2023-07-09T02:18:33;4.70;;;3.25;;
17079;SDS011;8655;57.106;-2.088;2023-07-09T02:20:59;6.18;;;3.53;;
17079;SDS011;8655;57.106;-2.088;2023-07-09T02:23:26;4.75;;;3.25;;
17079;SDS011;8655;57.106;-2.088;2023-07-09T02:25:52;6.07;;;3.35;;
17079;SDS011;8655;57.106;-2.088;2023-07-09T02:28:18;7.90;;;3.33;;
17079;SDS011;8655;57.106;-2.088;2023-07-09T02:30:44;16.77;;;4.07;;
17079;SDS011;8655;57.106;-2.088;2023-07-09T02:33:09;20.02;;;3.90;;
17079;SDS011;8655;57.106;-2.088;2023-07-09T02:35:35;8.25;;;3.40;;
17079;SDS011;8655;57.106;-2.088;2023-07-09T02:38:01;10.50;;;4.00;;
17079;SDS011;8655;57.106;-2.088;2023-07-09T02:40:28;9.43;;;3.65;;
17079;SDS011;8655;57.106;-2.088;2023-07-09T02:42:53;12.05;;;3.53;;
17079;SDS011;8655;57.106;-2.088;2023-07-09T02:45:19;11.68;;;3.97;;
17079;SDS011;8655;57.106;-2.088;2023-07-09T02:47:45;11.50;;;3.78;;
17079;SDS011;8655;57.106;-2.088;2023-07-09T02:50:11;10.20;;;3.35;;
17079;SDS011;8655;57.106;-2.088;2023-07-09T13:37:49;24.10;;;8.73;;
17079;SDS011;8655;57.106;-2.088;2023-07-09T13:40:15;23.02;;;7.32;;
17079;SDS011;8655;57.106;-2.088;2023-07-09T13:42:41;30.10;;;7.65;;
17079;SDS011;8655;57.106;-2.088;2023-07-09T13:45:22;24.00;;;6.65;;
17079;SDS011;8655;57.106;-2.088;2023-07-09T13:47:49;25.48;;;6.30;;
17079;SDS011;8655;57.106;-2.088;2023-07-09T13:50:16;23.00;;;6.00;;
17079;SDS011;8655;57.106;-2.088;2023-07-09T13:52:43;21.13;;;6.07;;
17079;SDS011;8655;57.106;-2.088;2023-07-09T13:55:14;17.88;;;5.82;;
17079;SDS011;8655;57.106;-2.088;2023-07-09T13:57:43;22.42;;;5.55;;
17079;SDS011;8655;57.106;-2.088;2023-07-09T14:00:09;18.73;;;5.80;;
17079;SDS011;8655;57.106;-2.088;2023-07-09T14:02:36;15.30;;;4.70;;
17079;SDS011;8655;57.106;-2.088;2023-07-09T14:05:04;19.58;;;5.65;;
17079;SDS011;8655;57.106;-2.088;2023-07-09T14:07:32;16.20;;;6.13;;
17079;SDS011;8655;57.106;-2.088;2023-07-09T14:10:00;14.75;;;5.10;;
17079;SDS011;8655;57.106;-2.088;2023-07-09T14:12:27;11.73;;;4.60;;
17079;SDS011;8655;57.106;-2.088;2023-07-09T14:14:55;17.13;;;5.10;;
17079;SDS011;8655;57.106;-2.088;2023-07-09T14:17:23;13.70;;;5.10;;
17079;SDS011;8655;57.106;-2.088;2023-07-09T14:19:51;11.23;;;4.35;;
17079;SDS011;8655;57.106;-2.088;2023-07-09T14:22:26;11.70;;;4.50;;
17079;SDS011;8655;57.106;-2.088;2023-07-09T14:24:59;14.68;;;4.55;;
17079;SDS011;8655;57.106;-2.088;2023-07-09T14:27:26;13.55;;;4.20;;
17079;SDS011;8655;57.106;-2.088;2023-07-09T14:29:52;9.95;;;4.43;;
17079;SDS011;8655;57.106;-2.088;2023-07-09T14:34:56;10.88;;;4.40;;
17079;SDS011;8655;57.106;-2.088;2023-07-09T14:37:22;9.95;;;4.00;;
17079;SDS011;8655;57.106;-2.088;2023-07-09T14:39:48;9.40;;;4.50;;
17079;SDS011;8655;57.106;-2.088;2023-07-09T14:42:13;12.13;;;4.10;;
17079;SDS011;8655;57.106;-2.088;2023-07-09T14:44:41;11.68;;;4.78;;
17079;SDS011;8655;57.106;-2.088;2023-07-09T14:47:10;10.85;;;4.25;;
17079;SDS011;8655;57.106;-2.088;2023-07-09T14:49:42;9.15;;;4.25;;
17079;SDS011;8655;57.106;-2.088;2023-07-09T14:52:18;8.73;;;4.47;;
17079;SDS011;8655;57.106;-2.088;2023-07-09T14:54:46;12.80;;;3.90;;
17079;SDS011;8655;57.106;-2.088;2023-07-09T14:57:31;7.78;;;3.47;;
17079;SDS011;8655;57.106;-2.088;2023-07-09T14:59:58;36.72;;;5.72;;
17079;SDS011;8655;57.106;-2.088;2023-07-09T15:02:34;20.17;;;4.32;;
17079;SDS011;8655;57.106;-2.088;2023-07-09T15:05:02;13.50;;;2.83;;
17079;SDS011;8655;57.106;-2.088;2023-07-09T15:07:36;9.30;;;2.75;;
17079;SDS011;8655;57.106;-2.088;2023-07-09T15:10:02;8.00;;;2.78;;
17079;SDS011;8655;57.106;-2.088;2023-07-09T15:12:32;7.90;;;2.55;;
17079;SDS011;8655;57.106;-2.088;2023-07-09T15:15:12;6.45;;;2.40;;
17079;SDS011;8655;57.106;-2.088;2023-07-09T15:17:49;8.23;;;2.53;;
17079;SDS011;8655;57.106;-2.088;2023-07-09T15:20:16;6.45;;;1.88;;
17079;SDS011;8655;57.106;-2.088;2023-07-09T15:22:44;9.43;;;1.98;;
17079;SDS011;8655;57.106;-2.088;2023-07-09T15:25:15;4.93;;;1.75;;
17079;SDS011;8655;57.106;-2.088;2023-07-09T15:27:44;5.75;;;1.75;;
17079;SDS011;8655;57.106;-2.088;2023-07-09T15:30:14;4.90;;;1.63;;
17079;SDS011;8655;57.106;-2.088;2023-07-09T15:32:47;7.13;;;1.60;;
17079;SDS011;8655;57.106;-2.088;2023-07-09T15:35:14;6.28;;;1.80;;
17079;SDS011;8655;57.106;-2.088;2023-07-09T15:37:42;6.32;;;1.98;;
17079;SDS011;8655;57.106;-2.088;2023-07-09T15:42:49;8.68;;;2.00;;
17079;SDS011;8655;57.106;-2.088;2023-07-09T15:45:18;4.57;;;2.00;;
17079;SDS011;8655;57.106;-2.088;2023-07-09T15:47:45;6.78;;;2.10;;
17079;SDS011;8655;57.106;-2.088;2023-07-09T15:50:22;6.88;;;2.17;;
17079;SDS011;8655;57.106;-2.088;2023-07-09T15:52:50;7.57;;;1.70;;
17079;SDS011;8655;57.106;-2.088;2023-07-09T15:55:18;5.32;;;1.92;;
17079;SDS011;8655;57.106;-2.088;2023-07-09T15:57:45;7.97;;;2.30;;
17079;SDS011;8655;57.106;-2.088;2023-07-09T16:03:35;7.40;;;2.22;;
17079;SDS011;8655;57.106;-2.088;2023-07-09T16:06:01;10.57;;;1.90;;
17079;SDS011;8655;57.106;-2.088;2023-07-09T16:08:27;7.53;;;2.20;;
17079;SDS011;8655;57.106;-2.088;2023-07-09T16:10:52;6.25;;;2.15;;
17079;SDS011;8655;57.106;-2.088;2023-07-09T16:13:19;9.20;;;2.10;;
17079;SDS011;8655;57.106;-2.088;2023-07-09T16:15:47;7.97;;;2.35;;
17079;SDS011;8655;57.106;-2.088;2023-07-09T16:18:13;9.65;;;1.90;;
17079;SDS011;8655;57.106;-2.088;2023-07-09T16:20:40;4.88;;;1.83;;
17079;SDS011;8655;57.106;-2.088;2023-07-09T16:23:14;10.77;;;2.13;;
17079;SDS011;8655;57.106;-2.088;2023-07-09T16:25:43;7.38;;;2.20;;
17079;SDS011;8655;57.106;-2.088;2023-07-09T16:28:12;7.90;;;2.28;;
17079;SDS011;8655;57.106;-2.088;2023-07-09T16:30:39;7.10;;;1.90;;
17079;SDS011;8655;57.106;-2.088;2023-07-09T16:33:05;5.55;;;2.08;;
17079;SDS011;8655;57.106;-2.088;2023-07-09T16:35:32;11.98;;;2.20;;
17079;SDS011;8655;57.106;-2.088;2023-07-09T16:37:58;8.10;;;2.15;;
17079;SDS011;8655;57.106;-2.088;2023-07-09T16:40:27;9.02;;;2.35;;
17079;SDS011;8655;57.106;-2.088;2023-07-09T16:42:55;6.45;;;2.22;;
17079;SDS011;8655;57.106;-2.088;2023-07-09T16:45:27;10.93;;;2.50;;
17079;SDS011;8655;57.106;-2.088;2023-07-09T16:47:54;7.32;;;2.25;;
17079;SDS011;8655;57.106;-2.088;2023-07-09T16:50:23;6.10;;;1.80;;
17079;SDS011;8655;57.106;-2.088;2023-07-09T16:52:51;8.32;;;2.22;;
17079;SDS011;8655;57.106;-2.088;2023-07-09T16:55:19;5.75;;;2.28;;
17079;SDS011;8655;57.106;-2.088;2023-07-09T16:57:52;6.30;;;2.20;;
17079;SDS011;8655;57.106;-2.088;2023-07-09T17:00:27;5.05;;;2.20;;
17079;SDS011;8655;57.106;-2.088;2023-07-09T17:02:54;11.40;;;2.10;;
17079;SDS011;8655;57.106;-2.088;2023-07-09T17:05:22;11.02;;;2.53;;
17079;SDS011;8655;57.106;-2.088;2023-07-09T17:07:49;6.15;;;2.00;;
17079;SDS011;8655;57.106;-2.088;2023-07-09T17:10:15;5.38;;;2.05;;
17079;SDS011;8655;57.106;-2.088;2023-07-09T17:12:41;6.50;;;2.08;;
17079;SDS011;8655;57.106;-2.088;2023-07-09T17:15:21;7.32;;;2.30;;
17079;SDS011;8655;57.106;-2.088;2023-07-09T17:17:47;6.97;;;2.38;;
17079;SDS011;8655;57.106;-2.088;2023-07-09T17:20:13;6.22;;;1.98;;
17079;SDS011;8655;57.106;-2.088;2023-07-09T17:22:40;7.55;;;2.15;;
17079;SDS011;8655;57.106;-2.088;2023-07-09T17:25:13;4.40;;;1.70;;
17079;SDS011;8655;57.106;-2.088;2023-07-09T17:28:00;8.00;;;2.20;;
17079;SDS011;8655;57.106;-2.088;2023-07-09T17:30:28;7.45;;;2.10;;
17079;SDS011;8655;57.106;-2.088;2023-07-09T17:32:54;7.03;;;2.50;;
17079;SDS011;8655;57.106;-2.088;2023-07-09T17:35:21;7.43;;;2.15;;
17079;SDS011;8655;57.106;-2.088;2023-07-09T17:37:51;7.20;;;1.80;;
17079;SDS011;8655;57.106;-2.088;2023-07-09T17:42:53;8.00;;;2.03;;
17079;SDS011;8655;57.106;-2.088;2023-07-09T17:45:20;8.02;;;2.70;;
17079;SDS011;8655;57.106;-2.088;2023-07-09T17:47:48;10.65;;;2.30;;
17079;SDS011;8655;57.106;-2.088;2023-07-09T17:50:15;6.78;;;2.30;;
17079;SDS011;8655;57.106;-2.088;2023-07-09T17:52:43;9.55;;;2.25;;
17079;SDS011;8655;57.106;-2.088;2023-07-09T17:55:12;8.35;;;2.55;;
17079;SDS011;8655;57.106;-2.088;2023-07-09T17:57:39;7.78;;;2.70;;
17079;SDS011;8655;57.106;-2.088;2023-07-09T18:00:09;8.40;;;2.13;;
17079;SDS011;8655;57.106;-2.088;2023-07-09T18:02:44;11.05;;;2.65;;
17079;SDS011;8655;57.106;-2.088;2023-07-09T18:05:20;13.45;;;2.50;;
17079;SDS011;8655;57.106;-2.088;2023-07-09T18:07:51;6.82;;;2.13;;
17079;SDS011;8655;57.106;-2.088;2023-07-09T18:10:17;10.48;;;2.75;;
17079;SDS011;8655;57.106;-2.088;2023-07-09T18:12:43;7.28;;;2.20;;
17079;SDS011;8655;57.106;-2.088;2023-07-09T18:15:09;8.55;;;2.60;;
17079;SDS011;8655;57.106;-2.088;2023-07-09T18:17:43;9.93;;;2.47;;
17079;SDS011;8655;57.106;-2.088;2023-07-09T18:20:13;9.07;;;2.45;;
17079;SDS011;8655;57.106;-2.088;2023-07-09T18:22:41;7.88;;;2.40;;
17079;SDS011;8655;57.106;-2.088;2023-07-09T18:25:07;8.25;;;2.25;;
17079;SDS011;8655;57.106;-2.088;2023-07-09T18:27:33;11.68;;;2.63;;
17079;SDS011;8655;57.106;-2.088;2023-07-09T18:30:02;10.05;;;2.35;;
17079;SDS011;8655;57.106;-2.088;2023-07-09T18:32:28;9.77;;;2.83;;
17079;SDS011;8655;57.106;-2.088;2023-07-09T18:34:55;9.65;;;2.55;;
17079;SDS011;8655;57.106;-2.088;2023-07-09T18:37:26;7.75;;;2.20;;
17079;SDS011;8655;57.106;-2.088;2023-07-09T18:39:52;7.65;;;2.35;;
17079;SDS011;8655;57.106;-2.088;2023-07-09T18:42:21;8.30;;;2.00;;
17079;SDS011;8655;57.106;-2.088;2023-07-09T18:44:47;7.05;;;2.30;;
17079;SDS011;8655;57.106;-2.088;2023-07-09T18:47:15;11.32;;;2.10;;
17079;SDS011;8655;57.106;-2.088;2023-07-09T18:49:43;8.80;;;2.38;;
17079;SDS011;8655;57.106;-2.088;2023-07-09T18:52:16;12.38;;;2.30;;
17079;SDS011;8655;57.106;-2.088;2023-07-09T18:54:46;10.23;;;2.80;;
17079;SDS011;8655;57.106;-2.088;2023-07-09T18:57:17;7.80;;;2.40;;
17079;SDS011;8655;57.106;-2.088;2023-07-09T18:59:43;9.00;;;2.15;;
17079;SDS011;8655;57.106;-2.088;2023-07-09T19:02:15;10.43;;;2.33;;
17079;SDS011;8655;57.106;-2.088;2023-07-09T19:04:45;14.13;;;2.55;;
17079;SDS011;8655;57.106;-2.088;2023-07-09T19:07:13;9.38;;;2.30;;
17079;SDS011;8655;57.106;-2.088;2023-07-09T19:09:41;6.57;;;2.08;;
17079;SDS011;8655;57.106;-2.088;2023-07-09T19:12:07;11.10;;;2.55;;
17079;SDS011;8655;57.106;-2.088;2023-07-09T19:14:33;20.75;;;3.58;;
17079;SDS011;8655;57.106;-2.088;2023-07-09T19:17:01;15.02;;;2.42;;
17079;SDS011;8655;57.106;-2.088;2023-07-09T19:19:28;7.38;;;2.25;;
17079;SDS011;8655;57.106;-2.088;2023-07-09T19:21:55;6.65;;;2.10;;
17079;SDS011;8655;57.106;-2.088;2023-07-09T19:26:49;10.40;;;2.45;;
17079;SDS011;8655;57.106;-2.088;2023-07-09T19:29:19;12.75;;;2.45;;
17079;SDS011;8655;57.106;-2.088;2023-07-09T19:31:47;17.27;;;3.03;;
17079;SDS011;8655;57.106;-2.088;2023-07-09T19:34:20;8.73;;;2.17;;
17079;SDS011;8655;57.106;-2.088;2023-07-09T19:36:56;8.73;;;2.38;;
17079;SDS011;8655;57.106;-2.088;2023-07-09T19:41:53;9.63;;;2.80;;
17079;SDS011;8655;57.106;-2.088;2023-07-09T19:44:22;11.93;;;2.20;;
17079;SDS011;8655;57.106;-2.088;2023-07-09T19:46:48;171.75;;;11.73;;
17079;SDS011;8655;57.106;-2.088;2023-07-09T19:49:14;35.60;;;4.22;;
17079;SDS011;8655;57.106;-2.088;2023-07-09T19:51:40;15.68;;;2.70;;
17079;SDS011;8655;57.106;-2.088;2023-07-09T19:54:13;9.68;;;2.20;;
17079;SDS011;8655;57.106;-2.088;2023-07-09T19:56:41;8.98;;;2.53;;
17079;SDS011;8655;57.106;-2.088;2023-07-09T19:59:08;7.75;;;2.15;;
17079;SDS011;8655;57.106;-2.088;2023-07-09T20:01:33;11.63;;;2.70;;
17079;SDS011;8655;57.106;-2.088;2023-07-09T20:03:59;6.50;;;2.28;;
17079;SDS011;8655;57.106;-2.088;2023-07-09T20:06:25;9.73;;;2.55;;
17079;SDS011;8655;57.106;-2.088;2023-07-09T20:08:50;8.57;;;2.25;;
17079;SDS011;8655;57.106;-2.088;2023-07-09T20:11:16;6.75;;;1.95;;
17079;SDS011;8655;57.106;-2.088;2023-07-09T20:13:42;9.52;;;2.15;;
17079;SDS011;8655;57.106;-2.088;2023-07-09T20:16:25;6.60;;;1.77;;
17079;SDS011;8655;57.106;-2.088;2023-07-09T20:18:58;7.20;;;2.40;;
17079;SDS011;8655;57.106;-2.088;2023-07-09T20:21:25;11.15;;;2.20;;
17079;SDS011;8655;57.106;-2.088;2023-07-09T20:23:52;7.32;;;2.25;;
17079;SDS011;8655;57.106;-2.088;2023-07-09T20:26:18;12.13;;;2.70;;
17079;SDS011;8655;57.106;-2.088;2023-07-09T20:28:44;9.90;;;3.10;;
17079;SDS011;8655;57.106;-2.088;2023-07-09T20:31:11;9.10;;;2.45;;
17079;SDS011;8655;57.106;-2.088;2023-07-09T20:33:48;8.65;;;2.22;;
17079;SDS011;8655;57.106;-2.088;2023-07-09T20:36:34;16.17;;;2.95;;
17079;SDS011;8655;57.106;-2.088;2023-07-09T20:39:00;11.35;;;2.50;;
17079;SDS011;8655;57.106;-2.088;2023-07-09T20:41:26;40.83;;;3.83;;
17079;SDS011;8655;57.106;-2.088;2023-07-09T20:43:55;19.13;;;2.78;;
17079;SDS011;8655;57.106;-2.088;2023-07-09T20:46:21;15.75;;;2.75;;
17079;SDS011;8655;57.106;-2.088;2023-07-09T20:48:47;11.73;;;2.35;;
17079;SDS011;8655;57.106;-2.088;2023-07-09T20:51:12;10.43;;;2.50;;
17079;SDS011;8655;57.106;-2.088;2023-07-09T20:53:39;11.40;;;2.60;;
17079;SDS011;8655;57.106;-2.088;2023-07-09T20:56:07;11.50;;;2.60;;
17079;SDS011;8655;57.106;-2.088;2023-07-09T20:58:37;15.02;;;2.60;;
17079;SDS011;8655;57.106;-2.088;2023-07-09T21:01:02;9.02;;;2.42;;
17079;SDS011;8655;57.106;-2.088;2023-07-09T21:03:28;9.93;;;2.55;;
17079;SDS011;8655;57.106;-2.088;2023-07-09T21:05:54;9.88;;;2.13;;
17079;SDS011;8655;57.106;-2.088;2023-07-09T21:08:22;8.82;;;2.17;;
17079;SDS011;8655;57.106;-2.088;2023-07-09T21:10:50;11.27;;;2.83;;
17079;SDS011;8655;57.106;-2.088;2023-07-09T21:13:18;10.52;;;2.22;;
17079;SDS011;8655;57.106;-2.088;2023-07-09T21:15:47;8.93;;;2.00;;
17079;SDS011;8655;57.106;-2.088;2023-07-09T21:18:16;11.85;;;2.28;;
17079;SDS011;8655;57.106;-2.088;2023-07-09T21:20:43;8.95;;;2.13;;
17079;SDS011;8655;57.106;-2.088;2023-07-09T21:23:13;12.60;;;2.38;;
17079;SDS011;8655;57.106;-2.088;2023-07-09T21:25:40;12.32;;;2.17;;
17079;SDS011;8655;57.106;-2.088;2023-07-09T21:28:06;9.10;;;2.22;;
17079;SDS011;8655;57.106;-2.088;2023-07-09T21:30:32;12.77;;;2.50;;
17079;SDS011;8655;57.106;-2.088;2023-07-09T21:32:57;13.85;;;3.28;;
17079;SDS011;8655;57.106;-2.088;2023-07-09T21:35:25;15.20;;;3.78;;
17079;SDS011;8655;57.106;-2.088;2023-07-09T21:37:52;17.92;;;3.10;;
17079;SDS011;8655;57.106;-2.088;2023-07-09T21:40:32;13.02;;;2.80;;
17079;SDS011;8655;57.106;-2.088;2023-07-09T21:43:00;7.35;;;2.45;;
17079;SDS011;8655;57.106;-2.088;2023-07-09T21:48:05;8.10;;;2.40;;
17079;SDS011;8655;57.106;-2.088;2023-07-09T21:50:36;6.38;;;2.05;;
17079;SDS011;8655;57.106;-2.088;2023-07-09T21:53:02;8.73;;;2.75;;
17079;SDS011;8655;57.106;-2.088;2023-07-09T21:55:33;11.32;;;2.53;;
17079;SDS011;8655;57.106;-2.088;2023-07-09T21:57:59;7.15;;;2.45;;
17079;SDS011;8655;57.106;-2.088;2023-07-09T22:00:26;10.43;;;2.60;;
17079;SDS011;8655;57.106;-2.088;2023-07-09T22:02:52;8.32;;;2.13;;
17079;SDS011;8655;57.106;-2.088;2023-07-09T22:05:23;7.95;;;1.95;;
17079;SDS011;8655;57.106;-2.088;2023-07-09T22:07:51;10.93;;;2.38;;
17079;SDS011;8655;57.106;-2.088;2023-07-09T22:10:39;16.30;;;2.92;;
17079;SDS011;8655;57.106;-2.088;2023-07-09T22:13:04;17.02;;;2.80;;
17079;SDS011;8655;57.106;-2.088;2023-07-09T22:15:31;8.63;;;2.30;;
17079;SDS011;8655;57.106;-2.088;2023-07-09T22:18:03;20.38;;;3.53;;
17079;SDS011;8655;57.106;-2.088;2023-07-09T22:20:29;13.38;;;2.80;;
17079;SDS011;8655;57.106;-2.088;2023-07-09T22:22:56;10.40;;;2.63;;
17079;SDS011;8655;57.106;-2.088;2023-07-09T22:25:26;10.77;;;2.33;;
17079;SDS011;8655;57.106;-2.088;2023-07-09T22:27:54;8.80;;;2.90;;
17079;SDS011;8655;57.106;-2.088;2023-07-09T22:30:22;9.55;;;2.58;;
17079;SDS011;8655;57.106;-2.088;2023-07-09T22:32:53;6.25;;;2.20;;
17079;SDS011;8655;57.106;-2.088;2023-07-09T22:35:22;10.57;;;2.70;;
17079;SDS011;8655;57.106;-2.088;2023-07-09T22:37:50;7.13;;;2.30;;
17079;SDS011;8655;57.106;-2.088;2023-07-09T22:40:24;83.22;;;8.32;;
17079;SDS011;8655;57.106;-2.088;2023-07-09T22:42:52;14.68;;;2.80;;
17079;SDS011;8655;57.106;-2.088;2023-07-09T22:45:20;12.13;;;3.33;;
17079;SDS011;8655;57.106;-2.088;2023-07-09T22:47:51;19.13;;;3.10;;
17079;SDS011;8655;57.106;-2.088;2023-07-09T22:50:29;14.50;;;3.03;;
17079;SDS011;8655;57.106;-2.088;2023-07-09T22:52:55;16.20;;;3.22;;
17079;SDS011;8655;57.106;-2.088;2023-07-09T22:58:00;11.45;;;2.65;;
17079;SDS011;8655;57.106;-2.088;2023-07-09T23:00:28;14.52;;;2.90;;
17079;SDS011;8655;57.106;-2.088;2023-07-09T23:02:59;8.65;;;2.30;;
17079;SDS011;8655;57.106;-2.088;2023-07-09T23:05:26;9.48;;;2.70;;
17079;SDS011;8655;57.106;-2.088;2023-07-09T23:07:52;8.85;;;2.88;;
17079;SDS011;8655;57.106;-2.088;2023-07-09T23:10:19;8.40;;;2.30;;
17079;SDS011;8655;57.106;-2.088;2023-07-09T23:12:45;8.70;;;2.40;;
17079;SDS011;8655;57.106;-2.088;2023-07-09T23:15:22;7.82;;;2.40;;
17079;SDS011;8655;57.106;-2.088;2023-07-09T23:17:51;7.38;;;2.20;;
17079;SDS011;8655;57.106;-2.088;2023-07-09T23:20:19;8.48;;;2.30;;
17079;SDS011;8655;57.106;-2.088;2023-07-09T23:22:50;6.97;;;1.98;;
17079;SDS011;8655;57.106;-2.088;2023-07-09T23:25:18;7.03;;;2.42;;
17079;SDS011;8655;57.106;-2.088;2023-07-09T23:27:44;11.63;;;2.72;;
17079;SDS011;8655;57.106;-2.088;2023-07-09T23:30:15;9.10;;;2.65;;
17079;SDS011;8655;57.106;-2.088;2023-07-09T23:32:50;7.53;;;2.45;;
17079;SDS011;8655;57.106;-2.088;2023-07-09T23:35:17;7.53;;;2.20;;
17079;SDS011;8655;57.106;-2.088;2023-07-09T23:37:47;6.13;;;2.13;;
17079;SDS011;8655;57.106;-2.088;2023-07-09T23:40:15;5.18;;;1.92;;
17079;SDS011;8655;57.106;-2.088;2023-07-09T23:42:43;7.82;;;2.20;;
17079;SDS011;8655;57.106;-2.088;2023-07-09T23:45:14;6.22;;;2.17;;
17079;SDS011;8655;57.106;-2.088;2023-07-09T23:47:46;8.60;;;2.50;;
17079;SDS011;8655;57.106;-2.088;2023-07-09T23:50:16;7.63;;;2.30;;
17079;SDS011;8655;57.106;-2.088;2023-07-09T23:52:46;7.55;;;2.20;;
17079;SDS011;8655;57.106;-2.088;2023-07-09T23:55:14;8.48;;;2.30;;
17079;SDS011;8655;57.106;-2.088;2023-07-09T23:57:44;9.30;;;2.30;;
